»·PEaware :: N454EF KSNA-KBUR

N454EF :: KSNA-KBUR

FLIGHT INFORMATION

Flight Status: Arrived
Operator: Privately registered:
United States
More flights under this callsign
Pilot: Grant S. (12551)
Aircraft: BEECH AIRCRAFT BONANZA
(BE36)
More flights by this aircraft type
Origin: KSNA John Wayne-Orange Co
United States
Destination: KBUR Bob Hope-Burbank
United States
More flights between these airports :: More routes between these airports
Route: SLI V23 POPPR SMO125 SMO SMO311 SILEX
File this flight plan on PilotEdge
Remarks:
Altitude:
(Current/Filed)
8,000ft
Speed:
(Current/Filed)
165kts
Departed: 11-Jan-18 05:53 PM
Arrived: 11-Jan-18 06:21 PM
Distance/Time
Traveled:
40nm/0:28
Distance/Time
To Go:
Arrived

Flight Plot

Page will automatically refresh every two minutes.


Map Options




Map Legend


Flown Route
Filed Route
Departure Airport
Arrival Airport
Navaid (VOR, NDB)
Fix

Horizontal Profiles

Position Reports

Time Latitude Longitude Heading Altitude Ground
Speed
11-Jan-18 17:20 33.672489 -117.866871 211 56ft 0kts
11-Jan-18 17:21 33.672489 -117.866871 211 56ft 0kts
11-Jan-18 17:22 33.672489 -117.866871 211 56ft 0kts
11-Jan-18 17:23 33.672489 -117.866871 211 56ft 0kts
11-Jan-18 17:24 33.672489 -117.866871 211 56ft 0kts
11-Jan-18 17:25 33.672489 -117.866871 211 56ft 0kts
11-Jan-18 17:26 33.672489 -117.866871 211 56ft 0kts
11-Jan-18 17:27 33.672489 -117.866871 211 56ft 0kts
11-Jan-18 17:28 33.672489 -117.866871 211 56ft 0kts
11-Jan-18 17:29 33.672453 -117.867146 308 56ft 0kts
11-Jan-18 17:30 33.672453 -117.867146 308 56ft 0kts
11-Jan-18 17:31 33.672453 -117.867146 308 56ft 0kts
11-Jan-18 17:32 33.672453 -117.867146 308 56ft 0kts
11-Jan-18 17:33 33.672453 -117.867146 308 56ft 0kts
11-Jan-18 17:34 33.672453 -117.867146 308 56ft 0kts
11-Jan-18 17:35 33.672453 -117.867146 308 56ft 0kts
11-Jan-18 17:36 33.672453 -117.867146 308 56ft 0kts
11-Jan-18 17:37 33.672453 -117.867146 308 56ft 0kts
11-Jan-18 17:38 33.672453 -117.867146 308 56ft 0kts
11-Jan-18 17:39 33.672453 -117.867146 308 56ft 0kts
11-Jan-18 17:40 33.672453 -117.867146 308 56ft 0kts
11-Jan-18 17:41 33.672453 -117.867146 308 56ft 0kts
11-Jan-18 17:42 33.672453 -117.867146 308 56ft 0kts
11-Jan-18 17:43 33.672453 -117.867146 308 56ft 0kts
11-Jan-18 17:44 33.672453 -117.867146 308 56ft 0kts
11-Jan-18 17:45 33.672453 -117.867146 308 56ft 0kts
11-Jan-18 17:46 33.672453 -117.867146 308 56ft 0kts
11-Jan-18 17:47 33.672453 -117.867146 308 56ft 0kts
11-Jan-18 17:48 33.672453 -117.867146 308 56ft 0kts
11-Jan-18 17:49 33.672453 -117.867146 308 56ft 0kts
11-Jan-18 17:50 33.672453 -117.867146 308 56ft 0kts
11-Jan-18 17:51 33.672453 -117.867146 308 56ft 0kts
11-Jan-18 17:52 33.672453 -117.867146 308 56ft 0kts
11-Jan-18 17:53 33.673034 -117.867128 27 56ft 7kts
11-Jan-18 17:54 33.675015 -117.866528 21 56ft 8kts
11-Jan-18 17:55 33.677882 -117.864707 27 56ft 18kts
11-Jan-18 17:56 33.680022 -117.863674 301 56ft 0kts
11-Jan-18 17:57 33.680022 -117.863674 301 56ft 0kts
11-Jan-18 17:58 33.680164 -117.864029 279 56ft 9kts
11-Jan-18 17:59 33.661124 -117.880811 227 1054ft 110kts
11-Jan-18 18:00 33.641001 -117.907726 228 1967ft 107kts
11-Jan-18 18:01 33.617807 -117.935587 237 2074ft 128kts
11-Jan-18 18:02 33.597625 -117.974107 236 2144ft 133kts
11-Jan-18 18:03 33.591585 -118.013483 278 2529ft 124kts
11-Jan-18 18:04 33.607793 -118.050461 317 2710ft 134kts
11-Jan-18 18:05 33.636607 -118.077304 322 3412ft 132kts
11-Jan-18 18:06 33.665529 -118.103978 317 4078ft 136kts
11-Jan-18 18:07 33.695285 -118.138934 309 4055ft 159kts
11-Jan-18 18:08 33.728257 -118.171876 316 4261ft 152kts
11-Jan-18 18:09 33.757113 -118.209414 297 4235ft 152kts
11-Jan-18 18:10 33.787721 -118.247196 317 4032ft 155kts
11-Jan-18 18:11 33.821283 -118.280238 317 3933ft 157kts
11-Jan-18 18:12 33.853749 -118.314586 321 3867ft 155kts
11-Jan-18 18:13 33.886253 -118.346279 313 4006ft 150kts
11-Jan-18 18:14 33.917768 -118.379495 317 4030ft 154kts
11-Jan-18 18:15 33.952774 -118.410068 327 3987ft 156kts
11-Jan-18 18:16 33.990003 -118.436736 321 3960ft 155kts
11-Jan-18 18:17 34.018504 -118.466001 320 3926ft 156kts
11-Jan-18 18:18 34.048371 -118.492437 318 4111ft 148kts
11-Jan-18 18:19 34.085274 -118.513487 350 4166ft 156kts
11-Jan-18 18:20 34.128185 -118.523988 347 3894ft 161kts
11-Jan-18 18:21 34.172498 -118.527941 353 3007ft 154kts
11-Jan-18 18:22 34.209985 -118.527576 34 2839ft 140kts
11-Jan-18 18:23 34.202288 -118.484080 113 2338ft 133kts
11-Jan-18 18:24 34.197119 -118.446267 91 2124ft 116kts
11-Jan-18 18:25 34.198077 -118.410163 89 1422ft 101kts
11-Jan-18 18:26 34.197962 -118.378286 90 984ft 87kts
11-Jan-18 18:27 34.197398 -118.358075 160 777ft 12kts

Navigation Log

Ident Type
1. KSNA Airport
2. SLI Navaid
3. POPPR Fix
4. SMO Navaid
5. SILEX Fix
6. KBUR Airport